createdAt,value
2023-05-21T00:02:19.934Z,52.09
2023-05-21T00:04:47.145Z,52.33
2023-05-21T00:07:15.196Z,52.24
2023-05-21T00:09:41.715Z,52.29
2023-05-21T00:12:09.229Z,52.17
2023-05-21T00:14:35.948Z,52.11
2023-05-21T00:17:02.459Z,51.94
2023-05-21T00:19:28.963Z,52.03
2023-05-21T00:21:55.989Z,51.95
2023-05-21T00:24:22.740Z,52.00
2023-05-21T00:26:49.279Z,52.26
2023-05-21T00:29:16.196Z,52.18
2023-05-21T00:31:42.740Z,52.26
2023-05-21T00:34:09.283Z,51.87
2023-05-21T00:36:35.728Z,51.85
2023-05-21T00:39:02.457Z,52.01
2023-05-21T00:41:30.188Z,52.11
2023-05-21T00:44:00.119Z,52.08
2023-05-21T00:46:28.539Z,52.12
2023-05-21T00:48:57.957Z,51.95
2023-05-21T00:51:25.806Z,51.91
2023-05-21T00:53:52.984Z,52.07
2023-05-21T00:56:22.610Z,52.28
2023-05-21T00:58:52.773Z,52.24
2023-05-21T01:01:19.489Z,52.24
2023-05-21T01:03:48.761Z,52.19
2023-05-21T01:06:16.029Z,52.19
2023-05-21T01:08:42.702Z,52.30
2023-05-21T01:11:10.587Z,52.33
2023-05-21T01:13:40.190Z,52.25
2023-05-21T01:16:08.895Z,52.15
2023-05-21T01:18:37.799Z,52.13
2023-05-21T01:21:05.380Z,52.26
2023-05-21T01:23:32.028Z,52.25
2023-05-21T01:25:58.723Z,52.23
2023-05-21T01:28:25.285Z,52.32
2023-05-21T01:30:52.041Z,52.43
2023-05-21T01:33:29.547Z,52.22
2023-05-21T01:36:34.473Z,52.24
2023-05-21T01:39:14.412Z,52.22
2023-05-21T01:41:44.841Z,52.09
2023-05-21T01:44:12.569Z,52.38
2023-05-21T01:46:39.892Z,52.28
2023-05-21T01:49:07.948Z,52.32
2023-05-21T01:51:35.223Z,52.20
2023-05-21T01:54:02.579Z,51.97
2023-05-21T01:56:29.099Z,52.40
2023-05-21T01:58:59.354Z,52.49
2023-05-21T02:01:26.908Z,52.45
2023-05-21T02:03:53.648Z,52.55
2023-05-21T02:06:20.239Z,52.38
2023-05-21T02:08:48.293Z,52.53
2023-05-21T02:11:14.862Z,52.46
2023-05-21T02:13:42.835Z,52.35
2023-05-21T02:16:14.733Z,52.43
2023-05-21T02:18:43.538Z,52.61
2023-05-21T02:21:11.409Z,52.53
2023-05-21T02:23:38.726Z,52.72
2023-05-21T02:26:05.420Z,52.53
2023-05-21T02:28:32.775Z,52.62
2023-05-21T02:30:59.429Z,52.66
2023-05-21T02:33:26.100Z,52.91
2023-05-21T02:35:52.593Z,52.52
2023-05-21T02:38:23.150Z,52.71
2023-05-21T02:40:53.400Z,52.83
2023-05-21T02:43:20.137Z,52.69
2023-05-21T02:45:46.655Z,52.44
2023-05-21T02:48:14.241Z,52.65
2023-05-21T02:50:41.732Z,52.70
2023-05-21T02:53:08.421Z,52.48
2023-05-21T02:55:36.097Z,52.73
2023-05-21T02:58:02.809Z,52.81
2023-05-21T03:00:29.315Z,52.92
2023-05-21T03:02:55.996Z,52.85
2023-05-21T03:05:22.619Z,52.94
2023-05-21T03:07:50.130Z,52.82
2023-05-21T03:10:16.826Z,52.94
2023-05-21T03:12:43.273Z,52.78
2023-05-21T03:15:11.751Z,53.20
2023-05-21T03:17:38.295Z,52.82
2023-05-21T03:20:05.519Z,53.15
2023-05-21T03:22:32.365Z,53.05
2023-05-21T03:25:00.227Z,53.07
2023-05-21T03:27:26.978Z,53.20
2023-05-21T03:29:55.819Z,53.37
2023-05-21T03:32:22.887Z,53.30
2023-05-21T03:34:49.988Z,53.32
2023-05-21T03:37:18.111Z,53.31
2023-05-21T03:39:44.631Z,53.34
2023-05-21T03:42:11.118Z,53.55
2023-05-21T03:44:43.757Z,53.50
2023-05-21T03:47:31.194Z,53.42
2023-05-21T03:49:59.012Z,53.33
2023-05-21T03:52:26.526Z,53.60
2023-05-21T03:54:53.197Z,53.60
2023-05-21T03:57:19.768Z,53.30
2023-05-21T03:59:47.788Z,53.68
2023-05-21T04:02:14.687Z,53.52
2023-05-21T04:04:41.583Z,53.69
2023-05-21T04:07:14.279Z,53.79
2023-05-21T04:09:41.959Z,53.54
2023-05-21T04:12:08.559Z,53.75
2023-05-21T04:14:37.601Z,54.01
2023-05-21T04:17:05.286Z,54.03
2023-05-21T04:19:33.102Z,53.92
2023-05-21T04:22:00.979Z,54.02
2023-05-21T04:24:27.571Z,54.17
2023-05-21T04:27:14.125Z,54.13
2023-05-21T04:29:43.622Z,54.29
2023-05-21T04:32:11.629Z,54.23
2023-05-21T04:34:39.583Z,54.42
2023-05-21T04:37:06.821Z,54.35
2023-05-21T04:39:34.640Z,54.29
2023-05-21T04:42:02.112Z,54.36
2023-05-21T04:44:29.473Z,54.34
2023-05-21T04:46:58.730Z,54.27
2023-05-21T04:49:25.585Z,54.24
2023-05-21T04:51:52.246Z,54.43
2023-05-21T04:54:18.761Z,54.34
2023-05-21T04:56:45.317Z,54.40
2023-05-21T04:59:11.846Z,54.38
2023-05-21T05:01:38.643Z,54.46
2023-05-21T05:04:05.908Z,54.42
2023-05-21T05:06:32.718Z,54.34
2023-05-21T05:08:59.288Z,54.54
2023-05-21T05:11:26.564Z,54.52
2023-05-21T05:13:53.256Z,54.50
2023-05-21T05:16:25.197Z,54.37
2023-05-21T05:18:53.051Z,54.32
2023-05-21T05:21:22.389Z,54.44
2023-05-21T05:23:48.994Z,54.58
2023-05-21T05:26:15.939Z,54.48
2023-05-21T05:28:42.460Z,54.61
2023-05-21T05:31:09.073Z,54.59
2023-05-21T05:33:35.896Z,54.54
2023-05-21T05:36:03.007Z,54.67
2023-05-21T05:38:29.728Z,54.59
2023-05-21T05:40:56.330Z,54.79
2023-05-21T05:43:24.514Z,54.82
2023-05-21T05:45:51.496Z,54.96
2023-05-21T05:48:19.185Z,55.11
2023-05-21T05:50:46.481Z,55.23
2023-05-21T05:53:14.557Z,55.59
2023-05-21T05:55:41.399Z,55.92
2023-05-21T05:58:07.965Z,55.85
2023-05-21T06:00:47.470Z,55.80
2023-05-21T06:03:14.165Z,56.31
2023-05-21T06:05:42.218Z,56.26
2023-05-21T06:08:08.741Z,56.03
2023-05-21T06:10:35.241Z,55.96
2023-05-21T06:13:03.643Z,55.99
2023-05-21T06:15:30.308Z,56.64
2023-05-21T06:17:56.941Z,56.46
2023-05-21T06:20:23.521Z,56.31
2023-05-21T06:22:50.078Z,56.29
2023-05-21T06:25:16.565Z,56.63
2023-05-21T06:27:43.058Z,56.49
2023-05-21T06:30:17.464Z,56.33
2023-05-21T06:32:44.284Z,56.43
2023-05-21T06:35:10.910Z,56.39
2023-05-21T06:37:37.414Z,56.49
2023-05-21T06:40:05.390Z,56.56
2023-05-21T06:42:32.360Z,56.72
2023-05-21T06:45:30.658Z,56.91
2023-05-21T06:48:01.237Z,56.64
2023-05-21T06:50:27.902Z,56.98
2023-05-21T06:52:54.469Z,57.20
2023-05-21T06:55:21.283Z,57.01
2023-05-21T06:58:14.048Z,57.13
2023-05-21T07:00:40.871Z,57.46
2023-05-21T07:03:07.430Z,57.60
2023-05-21T07:05:34.219Z,57.64
2023-05-21T07:08:00.751Z,57.61
2023-05-21T07:10:27.363Z,57.84
2023-05-21T07:12:53.816Z,57.99
2023-05-21T07:15:20.736Z,58.04
2023-05-21T07:17:47.299Z,58.00
2023-05-21T07:20:14.732Z,57.90
2023-05-21T07:22:44.346Z,57.96
2023-05-21T07:25:12.267Z,58.19
2023-05-21T07:27:38.761Z,58.23
2023-05-21T07:30:05.897Z,57.90
2023-05-21T07:32:32.585Z,58.06
2023-05-21T07:35:03.443Z,57.94
2023-05-21T07:37:31.253Z,57.90
2023-05-21T07:40:01.292Z,58.23
2023-05-21T07:42:31.064Z,57.91
2023-05-21T07:44:58.020Z,58.18
2023-05-21T07:47:26.607Z,58.21
2023-05-21T07:49:53.237Z,58.28
2023-05-21T07:52:20.743Z,58.64
2023-05-21T07:54:47.386Z,58.62
2023-05-21T07:57:13.963Z,58.59
2023-05-21T07:59:54.178Z,58.59
2023-05-21T08:02:21.514Z,58.51
2023-05-21T08:04:48.218Z,58.53
2023-05-21T08:07:16.952Z,58.23
2023-05-21T08:09:43.837Z,58.06
2023-05-21T08:12:14.328Z,58.32
2023-05-21T08:14:41.468Z,58.16
2023-05-21T08:17:12.010Z,58.26
2023-05-21T08:19:38.796Z,58.17
2023-05-21T08:22:08.773Z,58.05
2023-05-21T08:24:38.112Z,58.05
2023-05-21T08:27:05.172Z,58.33
2023-05-21T08:29:33.039Z,58.11
2023-05-21T08:31:59.615Z,58.08
2023-05-21T08:34:26.571Z,57.77
2023-05-21T08:37:04.737Z,57.84
2023-05-21T08:39:51.185Z,58.09
2023-05-21T08:42:36.846Z,58.11
2023-05-21T08:45:06.832Z,57.83
2023-05-21T08:47:36.180Z,57.73
2023-05-21T08:50:08.538Z,58.06
2023-05-21T08:52:35.379Z,58.27
2023-05-21T08:55:04.457Z,58.67
2023-05-21T08:57:32.115Z,58.01
2023-05-21T08:59:59.962Z,57.94
2023-05-21T09:02:30.532Z,57.64
2023-05-21T09:04:58.928Z,57.78
2023-05-21T09:07:29.719Z,58.15
2023-05-21T09:10:12.573Z,58.07
2023-05-21T09:12:39.964Z,57.94
2023-05-21T09:15:07.489Z,58.11
2023-05-21T09:17:36.838Z,57.93
2023-05-21T09:20:25.791Z,57.30
2023-05-21T09:22:57.356Z,57.93
2023-05-21T09:25:28.061Z,57.78
2023-05-21T09:27:59.156Z,58.03
2023-05-21T09:30:29.720Z,58.38
2023-05-21T09:32:59.636Z,58.28
2023-05-21T09:35:26.827Z,58.29
2023-05-21T09:37:53.882Z,58.19
2023-05-21T09:40:21.849Z,58.17
2023-05-21T09:42:51.600Z,58.45
2023-05-21T09:45:25.478Z,58.26
2023-05-21T09:47:56.142Z,58.30
2023-05-21T09:50:24.791Z,58.67
2023-05-21T09:52:52.969Z,58.49
2023-05-21T09:55:23.209Z,58.43
2023-05-21T09:57:51.967Z,58.20
2023-05-21T10:00:27.254Z,58.20
2023-05-21T10:02:55.360Z,58.22
2023-05-21T10:05:28.258Z,58.14
2023-05-21T10:08:02.064Z,57.92
2023-05-21T10:10:29.904Z,57.43
2023-05-21T10:13:00.665Z,57.99
2023-05-21T10:15:31.397Z,57.95
2023-05-21T10:17:59.611Z,57.85
2023-05-21T10:20:26.524Z,57.60
2023-05-21T10:22:53.120Z,57.76
2023-05-21T10:25:20.743Z,57.70
2023-05-21T10:27:48.169Z,57.64
2023-05-21T10:30:15.589Z,57.57
2023-05-21T10:32:42.698Z,57.49
2023-05-21T10:35:09.887Z,57.49
2023-05-21T10:37:36.772Z,57.88
2023-05-21T10:40:04.437Z,57.75
2023-05-21T10:42:30.892Z,58.00
2023-05-21T10:45:28.582Z,58.00
2023-05-21T10:48:16.969Z,57.46
2023-05-21T10:50:52.278Z,57.50
2023-05-21T10:53:21.670Z,57.22
2023-05-21T10:56:10.547Z,57.11
2023-05-21T10:58:46.477Z,57.68
2023-05-21T11:01:14.072Z,57.64
2023-05-21T11:03:41.011Z,57.44
2023-05-21T11:06:08.428Z,57.25
2023-05-21T11:08:36.125Z,56.89
2023-05-21T11:11:03.821Z,57.13
2023-05-21T11:13:49.516Z,57.11
2023-05-21T11:16:17.631Z,56.88
2023-05-21T11:18:47.216Z,56.59
2023-05-21T11:21:17.976Z,56.81
2023-05-21T11:24:01.303Z,56.57
2023-05-21T11:26:30.346Z,56.62
2023-05-21T11:29:07.789Z,56.08
2023-05-21T11:31:41.225Z,56.32
2023-05-21T11:34:29.951Z,56.41
2023-05-21T11:37:18.335Z,56.03
2023-05-21T11:39:45.381Z,56.02
2023-05-21T11:42:11.946Z,56.00
2023-05-21T11:44:46.974Z,56.19
2023-05-21T11:47:15.360Z,56.32
2023-05-21T11:49:42.492Z,56.19
2023-05-21T11:52:10.919Z,56.18
2023-05-21T11:54:50.468Z,56.39
2023-05-21T11:57:21.077Z,56.09
2023-05-21T11:59:53.388Z,56.12
2023-05-21T12:02:21.501Z,56.11
2023-05-21T12:04:50.206Z,55.78
2023-05-21T12:07:19.065Z,55.81
2023-05-21T12:09:48.092Z,55.89
2023-05-21T12:12:17.161Z,55.95
2023-05-21T12:14:48.987Z,55.90
2023-05-21T12:17:17.218Z,55.86
2023-05-21T12:19:45.209Z,55.87
2023-05-21T12:22:11.969Z,55.63
2023-05-21T12:24:38.879Z,55.32
2023-05-21T12:27:10.278Z,55.70
2023-05-21T12:29:38.575Z,55.53
2023-05-21T12:32:07.351Z,55.56
2023-05-21T12:34:54.603Z,55.59
2023-05-21T12:37:24.337Z,55.52
2023-05-21T12:39:55.782Z,55.59
2023-05-21T12:42:35.817Z,55.42
2023-05-21T12:45:09.600Z,55.45
2023-05-21T12:47:36.478Z,55.23
2023-05-21T12:50:07.891Z,55.13
2023-05-21T12:52:34.382Z,55.17
2023-05-21T12:55:00.952Z,54.99
2023-05-21T12:57:35.267Z,54.59
2023-05-21T13:00:04.406Z,54.70
2023-05-21T13:02:41.163Z,54.50
2023-05-21T13:05:09.676Z,54.30
2023-05-21T13:07:38.097Z,54.39
2023-05-21T13:10:06.141Z,53.94
2023-05-21T13:12:34.089Z,54.06
2023-05-21T13:15:02.651Z,54.18
2023-05-21T13:17:29.883Z,54.04
2023-05-21T13:20:12.293Z,53.98
2023-05-21T13:22:46.416Z,53.85
2023-05-21T13:25:20.216Z,53.85
2023-05-21T13:27:48.027Z,53.54
2023-05-21T13:30:14.792Z,53.71
2023-05-21T13:32:42.239Z,53.45
2023-05-21T13:35:12.553Z,53.38
2023-05-21T13:37:40.194Z,53.58
2023-05-21T13:40:11.211Z,53.57
2023-05-21T13:42:41.114Z,53.41
2023-05-21T13:45:09.287Z,53.29
2023-05-21T13:47:39.121Z,53.07
2023-05-21T13:50:07.268Z,52.93
2023-05-21T13:52:33.777Z,53.03
2023-05-21T13:55:00.373Z,52.27
2023-05-21T13:57:27.132Z,52.55
2023-05-21T13:59:53.782Z,52.49
2023-05-21T14:02:20.327Z,52.50
2023-05-21T14:04:46.856Z,52.00
2023-05-21T14:07:13.361Z,52.54
2023-05-21T14:09:40.004Z,52.60
2023-05-21T14:12:07.448Z,52.64
2023-05-21T14:14:34.049Z,52.77
2023-05-21T14:17:00.692Z,52.54
2023-05-21T14:19:27.334Z,52.48
2023-05-21T14:21:54.292Z,52.26
2023-05-21T14:24:20.751Z,52.15
2023-05-21T14:26:47.261Z,52.29
2023-05-21T14:29:14.218Z,52.20
2023-05-21T14:31:40.800Z,51.62
2023-05-21T14:34:08.702Z,52.06
2023-05-21T14:36:36.271Z,51.98
2023-05-21T14:39:02.820Z,51.80
2023-05-21T14:41:29.742Z,51.92
2023-05-21T14:43:56.202Z,51.78
2023-05-21T14:46:22.810Z,51.74
2023-05-21T14:48:49.490Z,51.61
2023-05-21T14:51:16.500Z,51.42
2023-05-21T14:53:42.966Z,51.47
2023-05-21T14:56:09.484Z,51.58
2023-05-21T14:58:36.032Z,51.39
2023-05-21T15:01:04.392Z,51.14
2023-05-21T15:03:31.162Z,51.04
2023-05-21T15:05:58.511Z,50.51
2023-05-21T15:08:25.252Z,50.76
2023-05-21T15:10:51.713Z,50.72
2023-05-21T15:13:18.184Z,49.93
2023-05-21T15:15:44.853Z,50.45
2023-05-21T15:18:11.630Z,50.26
2023-05-21T15:20:38.155Z,50.55
2023-05-21T15:23:16.245Z,50.31
2023-05-21T15:25:44.539Z,49.99
2023-05-21T15:28:12.084Z,50.23
2023-05-21T15:30:38.838Z,49.77
2023-05-21T15:33:05.301Z,49.78
2023-05-21T15:35:31.853Z,49.67
2023-05-21T15:37:58.413Z,49.95
2023-05-21T15:40:26.881Z,49.91
2023-05-21T15:42:53.796Z,50.07
2023-05-21T15:45:20.583Z,49.76
2023-05-21T15:47:47.175Z,49.53
2023-05-21T15:50:13.765Z,49.79
2023-05-21T15:52:41.368Z,49.97
2023-05-21T15:55:08.187Z,49.58
2023-05-21T15:57:34.848Z,50.01
2023-05-21T16:00:01.303Z,49.43
2023-05-21T16:02:27.928Z,49.37
2023-05-21T16:04:54.681Z,49.54
2023-05-21T16:07:23.230Z,49.37
2023-05-21T16:09:49.713Z,49.53
2023-05-21T16:12:16.332Z,49.19
2023-05-21T16:14:42.784Z,48.71
2023-05-21T16:17:09.427Z,49.03
2023-05-21T16:19:36.417Z,49.38
2023-05-21T16:22:02.963Z,48.57
2023-05-21T16:24:29.435Z,48.96
2023-05-21T16:26:55.964Z,49.04
2023-05-21T16:29:22.478Z,48.79
2023-05-21T16:31:49.148Z,49.05
2023-05-21T16:34:15.781Z,49.01
2023-05-21T16:36:42.563Z,48.37
2023-05-21T16:39:09.185Z,48.93
2023-05-21T16:41:35.852Z,48.60
2023-05-21T16:44:02.408Z,48.94
2023-05-21T16:46:28.938Z,48.77
2023-05-21T16:48:55.527Z,48.56
2023-05-21T16:51:22.207Z,48.51
2023-05-21T16:53:48.841Z,48.69
2023-05-21T16:56:15.441Z,48.43
2023-05-21T16:58:41.921Z,47.89
2023-05-21T17:01:08.410Z,48.37
2023-05-21T17:03:35.092Z,48.50
2023-05-21T17:06:01.574Z,48.42
2023-05-21T17:08:28.063Z,48.62
2023-05-21T17:10:55.385Z,48.29
2023-05-21T17:13:23.021Z,48.89
2023-05-21T17:15:53.443Z,48.45
2023-05-21T17:18:20.049Z,48.46
2023-05-21T17:20:46.570Z,48.69
2023-05-21T17:23:13.299Z,48.84
2023-05-21T17:25:40.819Z,48.65
2023-05-21T17:28:07.615Z,48.34
2023-05-21T17:30:34.174Z,48.47
2023-05-21T17:33:02.174Z,48.49
2023-05-21T17:35:28.839Z,48.62
2023-05-21T17:37:55.354Z,48.82
2023-05-21T17:40:24.194Z,48.69
2023-05-21T17:42:54.231Z,48.66
2023-05-21T17:45:20.838Z,48.96
2023-05-21T17:47:47.371Z,48.69
2023-05-21T17:50:13.899Z,49.04
2023-05-21T17:52:40.382Z,48.62
2023-05-21T17:55:07.781Z,48.73
2023-05-21T17:57:35.726Z,48.88
2023-05-21T18:00:04.269Z,48.80
2023-05-21T18:02:38.410Z,48.40
2023-05-21T18:05:05.413Z,49.13
2023-05-21T18:07:32.065Z,49.38
2023-05-21T18:09:58.524Z,48.97
2023-05-21T18:12:24.995Z,48.49
2023-05-21T18:14:51.492Z,48.97
2023-05-21T18:17:17.986Z,48.55
2023-05-21T18:19:44.466Z,48.78
2023-05-21T18:22:11.086Z,48.53
2023-05-21T18:24:39.614Z,48.68
2023-05-21T18:27:06.201Z,48.91
2023-05-21T18:29:32.673Z,48.71
2023-05-21T18:31:59.479Z,48.67
2023-05-21T18:34:26.004Z,48.95
2023-05-21T18:36:54.521Z,48.89
2023-05-21T18:39:24.520Z,48.86
2023-05-21T18:41:55.759Z,48.71
2023-05-21T18:44:29.650Z,48.95
2023-05-21T18:46:57.748Z,49.00
2023-05-21T18:49:24.472Z,48.89
2023-05-21T18:51:51.151Z,48.63
2023-05-21T18:54:17.930Z,48.65
2023-05-21T18:56:44.407Z,48.79
2023-05-21T18:59:10.842Z,48.56
2023-05-21T19:01:37.336Z,48.86
2023-05-21T19:04:03.851Z,48.57
2023-05-21T19:06:31.308Z,48.58
2023-05-21T19:08:57.748Z,48.81
2023-05-21T19:11:27.436Z,48.76
2023-05-21T19:13:53.986Z,48.58
2023-05-21T19:16:20.577Z,48.70
2023-05-21T19:18:47.231Z,48.86
2023-05-21T19:21:13.769Z,48.60
2023-05-21T19:23:51.828Z,48.71
2023-05-21T19:26:21.332Z,48.73
2023-05-21T19:28:52.702Z,48.80
2023-05-21T19:31:20.057Z,48.97
2023-05-21T19:33:46.706Z,48.72
2023-05-21T19:36:13.223Z,48.64
2023-05-21T19:38:46.665Z,48.91
2023-05-21T19:41:13.124Z,48.61
2023-05-21T19:43:39.812Z,48.73
2023-05-21T19:46:06.374Z,48.91
2023-05-21T19:48:32.849Z,48.64
2023-05-21T19:50:59.386Z,48.87
2023-05-21T19:53:26.127Z,48.73
2023-05-21T19:55:52.612Z,48.72
2023-05-21T19:58:23.440Z,48.66
2023-05-21T20:00:55.600Z,48.75
2023-05-21T20:03:22.070Z,48.67
2023-05-21T20:05:48.695Z,48.68
2023-05-21T20:08:16.377Z,48.86
2023-05-21T20:10:42.898Z,48.67
2023-05-21T20:13:09.363Z,48.80
2023-05-21T20:15:36.141Z,49.05
2023-05-21T20:18:02.698Z,48.91
2023-05-21T20:20:29.476Z,49.07
2023-05-21T20:23:03.141Z,48.62
2023-05-21T20:25:30.163Z,48.87
2023-05-21T20:27:57.593Z,48.78
2023-05-21T20:30:27.494Z,48.94
2023-05-21T20:32:54.020Z,48.50
2023-05-21T20:35:20.502Z,48.86
2023-05-21T20:37:46.963Z,48.89
2023-05-21T20:40:14.872Z,48.79
2023-05-21T20:42:44.812Z,48.89
2023-05-21T20:45:12.894Z,48.99
2023-05-21T20:47:39.425Z,49.19
2023-05-21T20:50:06.384Z,49.14
2023-05-21T20:52:32.831Z,48.99
2023-05-21T20:54:59.611Z,49.29
2023-05-21T20:57:27.356Z,49.31
2023-05-21T20:59:56.161Z,49.15
2023-05-21T21:02:23.230Z,49.11
2023-05-21T21:04:50.618Z,49.15
2023-05-21T21:07:20.844Z,49.18
2023-05-21T21:09:48.644Z,49.17
2023-05-21T21:12:26.190Z,49.19
2023-05-21T21:14:53.770Z,49.25
2023-05-21T21:17:20.611Z,49.28
2023-05-21T21:19:47.196Z,49.50
2023-05-21T21:22:15.337Z,49.42
2023-05-21T21:24:41.800Z,49.24
2023-05-21T21:27:08.326Z,49.63
2023-05-21T21:29:34.857Z,49.35
2023-05-21T21:32:01.372Z,49.42
2023-05-21T21:34:27.861Z,49.52
2023-05-21T21:36:54.328Z,49.25
2023-05-21T21:39:21.190Z,49.11
2023-05-21T21:41:47.689Z,49.41
2023-05-21T21:44:14.233Z,49.46
2023-05-21T21:46:40.954Z,49.33
2023-05-21T21:49:07.442Z,49.45
2023-05-21T21:51:34.108Z,49.38
2023-05-21T21:54:00.705Z,49.51
2023-05-21T21:56:27.181Z,49.45
2023-05-21T21:58:53.637Z,49.21
2023-05-21T22:01:20.273Z,49.46
2023-05-21T22:03:46.819Z,49.29
2023-05-21T22:06:13.306Z,49.33
2023-05-21T22:08:39.726Z,49.34
2023-05-21T22:11:06.536Z,49.39
2023-05-21T22:13:34.258Z,49.45
2023-05-21T22:16:01.934Z,49.23
2023-05-21T22:18:40.207Z,49.36
2023-05-21T22:21:13.999Z,49.42
2023-05-21T22:23:40.822Z,49.56
2023-05-21T22:26:07.486Z,49.33
2023-05-21T22:28:33.987Z,49.65
2023-05-21T22:31:00.818Z,49.46
2023-05-21T22:33:27.287Z,49.39
2023-05-21T22:35:54.312Z,49.37
2023-05-21T22:38:21.997Z,49.37
2023-05-21T22:40:48.503Z,49.36
2023-05-21T22:43:14.990Z,49.58
2023-05-21T22:45:41.482Z,49.32
2023-05-21T22:48:09.128Z,49.38
2023-05-21T22:50:35.976Z,49.36
2023-05-21T22:53:02.715Z,49.48
2023-05-21T22:55:29.300Z,49.44
2023-05-21T22:57:55.818Z,49.48
2023-05-21T23:00:22.580Z,49.31
2023-05-21T23:02:51.387Z,49.59
2023-05-21T23:05:19.710Z,49.07
2023-05-21T23:07:46.261Z,49.28
2023-05-21T23:10:12.721Z,49.46
2023-05-21T23:12:39.247Z,49.61
2023-05-21T23:15:07.283Z,49.48
2023-05-21T23:17:33.733Z,49.49
2023-05-21T23:20:00.222Z,49.41
2023-05-21T23:22:26.707Z,49.30
2023-05-21T23:24:54.103Z,49.33
2023-05-21T23:27:20.680Z,49.38
2023-05-21T23:29:47.133Z,49.33
2023-05-21T23:32:13.787Z,49.43
2023-05-21T23:34:40.244Z,49.54
2023-05-21T23:37:06.712Z,49.95
2023-05-21T23:39:33.202Z,49.49
2023-05-21T23:41:59.858Z,49.42
2023-05-21T23:44:26.367Z,49.47
2023-05-21T23:46:52.850Z,49.46
2023-05-21T23:49:19.324Z,49.59
2023-05-21T23:51:46.809Z,49.59
2023-05-21T23:54:13.313Z,49.67
2023-05-21T23:56:39.737Z,49.60
2023-05-21T23:59:06.351Z,49.64
